ADDS METAR Data INFO
IDs: Format: Raw Decoded Include TAF

Data at: 2107 UTC 21 Feb 2017

Region: TOP
KATL 212052Z 11006KT 8SM -RA FEW030 BKN050 OVC090 18/16 A3000 RMK AO2 RAB1955 SLP157 P0004 60004 T01780156 56015

KBOS 212054Z 11012KT 10SM BKN140 OVC250 03/M02 A3024 RMK AO2 SLP239 T00331022 56022

KBWI 212054Z 13005KT 10SM FEW110 FEW160 BKN230 11/01 A3018 RMK AO2 SLP221 T01110006 56026

KCLE 212051Z 25005KT 10SM BKN042 OVC120 18/07 A2997 RMK AO2 SLP149 T01830067 55007

KCLT 212052Z VRB05KT 10SM SCT044 BKN200 OVC250 20/06 A3009 RMK AO2 SLP185 T02000056 58022

KCVG 212052Z 32003KT 10SM SCT038 BKN065 BKN090 OVC130 19/10 A2996 RMK AO2 SLP140 T01940100 58013

KDCA 212052Z 18008KT 10SM FEW170 BKN240 13/01 A3018 RMK AO2 SLP221 T01280006 56027 $

KDEN 212053Z 27018G22KT 10SM FEW100 FEW120 FEW220 22/M13 A2999 RMK AO2 PK WND 27027/2031 SLP103 T02221133 56025

KDFW 212053Z 32013G21KT 10SM FEW030 25/07 A2990 RMK AO2 SLP119 T02500072 56025

KDTW 212053Z 17006KT 8SM BKN065 BKN080 OVC110 13/08 A2993 RMK AO2 RAE02 SLP140 P0000 60000 T01330078 50001

KEWR 212051Z 14007KT 10SM FEW180 SCT210 OVC260 07/00 A3023 RMK AO2 SLP237 T00670000 56022

KFLL 212053Z 13010KT 10SM BKN036 BKN055 OVC250 24/16 A2999 RMK AO2 SLP155 T02440161 56022

KIAD 212052Z 13009KT 10SM FEW180 OVC250 13/M01 A3016 RMK AO2 SLP216 T01281006 56024

KIAH 212053Z 35013G18KT 10SM FEW040 24/11 A2988 RMK AO2 SLP117 T02390111 56024

KJFK 212051Z 15009KT 10SM SCT170 BKN250 06/00 A3026 RMK AO2 SLP245 T00610000 56025

KLAS 212056Z 19013G26KT 10SM FEW070 BKN180 BKN250 19/01 A3015 RMK AO2 PK WND 21026/2035 SLP199 T01940011 58020

KLAX 212053Z 26007KT 8SM FEW012 SCT065 OVC110 17/13 A3029 RMK AO2 SLP254 60000 T01670133 58019

KLGA 212051Z 17011KT 10SM FEW050 SCT180 OVC230 08/M01 A3023 RMK AO2 SLP237 T00781011 56023 $

KMCO 212053Z 13012KT 10SM SCT034 BKN280 26/16 A2998 RMK AO2 SLP149 T02560161 56030

KMDW 212053Z 25007KT 10SM FEW025 BKN034 OVC250 18/12 A2990 RMK AO2 SLP123 T01780117 55011

KMEM 212054Z 14006KT 10SM FEW020 OVC033 18/14 A2984 RMK AO2 RAB18E30 SLP101 P0000 60000 T01830144 56017

KMIA 212053Z 11010KT 10SM BKN037 BKN055 OVC250 23/17 A3000 RMK AO2 SLP159 T02330167 56016

KMSP 212053Z 22015G27KT 10SM SCT220 BKN250 16/04 A2973 RMK AO2 PK WND 21027/2050 SLP070 T01610039 56034

KORD 212051Z 26006KT 10SM BKN022 BKN028 BKN035 OVC250 18/11 A2989 RMK AO2 SLP121 T01830111 56013

KPDX 212053Z 19008KT 10SM FEW019 OVC036 08/06 A2998 RMK AO2 RAE22 SLP150 P0000 60005 T00830061 51030 $

KPHL 212054Z 21009KT 10SM BKN200 BKN260 10/M01 A3021 RMK AO2 SLP229 T01001011 56028

KPHX 212051Z 01003KT 10SM FEW045 FEW200 22/08 A3020 RMK AO2 SLP216 T02220083 58038

KPIT 212051Z 21005KT 10SM FEW095 OVC150 18/05 A2998 RMK AO2 SLP160 T01830050 56012

KSAN 212051Z 29009KT 10SM SCT070 BKN200 BKN250 22/12 A3025 RMK AO2 SLP244 T02220117 58029

KSEA 212053Z 34007KT 10SM BKN011 OVC020 07/04 A2994 RMK AO2 RAB00E17 SLP146 P0001 60001 T00720044 51030

KSFO 212056Z 21012KT 10SM FEW028 BKN100 16/09 A3019 RMK AO2 SLP223 60000 T01560094 58008

KSLC 212054Z 18028G39KT 10SM FEW065 SCT170 SCT240 17/02 A2992 RMK AO2 PK WND 17040/2041 SLP101 TCU DSNT NW-N T01720022 58031

KSTL 212051Z VRB04KT 10SM FEW020 SCT029 BKN110 BKN250 19/13 A2990 RMK AO2 SLP121 60000 T01940133 55008

KTPA 212053Z VRB05KT 10SM BKN050 OVC270 26/14 A2997 RMK AO2 SLP147 T02610139 56026


Page loaded:  21:07 UTC  |   01:07 PM Pacific  |   02:07 PM Mountain  |   03:07 PM Central  |   04:07 PM Eastern

 

ADVISORIES

FORECASTS

FORECASTS

OBSERVATIONS

USER TOOLS

ABOUT US